Time;durP1;ratioP1;P1;durP2;ratioP2;P2;SDS_P1;SDS_P2;PMS_P1;PMS_P2;Temp;Humidity;BMP_temperature;BMP_pressure;BME280_temperature;BME280_humidity;BME280_pressure;Samples;Min_cycle;Max_cycle;Signal;HPM_P1;HPM_P2
2022/08/02 00:01:23;;;;;;;;;;;10.70;99.90;;;;;;5039518;28;20003;-60
2022/08/02 00:03:48;;;;;;;;;;;10.70;99.90;;;;;;5027139;28;19936;-60
2022/08/02 00:06:14;;;;;;;;;;;10.60;99.90;;;;;;5044758;28;19917;-60
2022/08/02 00:08:39;;;;;;;;;;;10.70;99.90;;;;;;5041087;28;19925;-59
2022/08/02 00:11:05;;;;;;;;;;;10.70;99.90;;;;;;5046021;28;19978;-60
2022/08/02 00:13:30;;;;;;;;;;;10.70;99.90;;;;;;5048531;28;20011;-60
2022/08/02 00:15:55;;;;;;;;;;;10.70;99.90;;;;;;5044414;28;19958;-61
2022/08/02 00:18:21;;;;;;;;;;;10.70;99.90;;;;;;5048450;28;20264;-60
2022/08/02 00:20:46;;;;;;;;;;;10.80;99.90;;;;;;5045737;28;19962;-61
2022/08/02 00:23:12;;;;;;;;;;;10.80;99.90;;;;;;5051270;28;19923;-59
2022/08/02 00:25:37;;;;;;;;;;;10.80;99.90;;;;;;5047875;28;19916;-60
2022/08/02 00:28:03;;;;;;;;;;;10.90;99.90;;;;;;5044943;28;19947;-60
2022/08/02 00:30:28;;;;;;;;;;;10.90;99.90;;;;;;5041289;28;19955;-60
2022/08/02 00:32:54;;;;;;;;;;;10.90;99.90;;;;;;5048529;28;19927;-60
2022/08/02 00:35:19;;;;;;;;;;;11.00;99.90;;;;;;5045162;28;19921;-61
2022/08/02 00:37:45;;;;;;;;;;;11.00;99.90;;;;;;5048770;28;19923;-60
2022/08/02 00:40:11;;;;;;;;;;;11.00;99.90;;;;;;5030950;28;19967;-60
2022/08/02 00:42:37;;;;;;;;;;;11.00;99.90;;;;;;5049960;28;19917;-60
2022/08/02 00:45:03;;;;;;;;;;;11.00;99.90;;;;;;5047923;28;19956;-61
2022/08/02 00:47:28;;;;;;;;;;;11.00;99.90;;;;;;5046580;28;20272;-60
2022/08/02 00:49:54;;;;;;;;;;;11.00;99.90;;;;;;5026066;28;19917;-61
2022/08/02 00:52:19;;;;;;;;;;;11.00;99.90;;;;;;5049510;28;19924;-60
2022/08/02 00:54:45;;;;;;;;;;;10.90;99.90;;;;;;5046782;28;20439;-60
2022/08/02 00:57:10;;;;;;;;;;;10.90;99.90;;;;;;5047825;28;19916;-61
2022/08/02 00:59:35;;;;;;;;;;;10.90;99.90;;;;;;5030760;28;20392;-60
2022/08/02 01:02:01;;;;;;;;;;;10.90;99.90;;;;;;5047786;28;19920;-60
2022/08/02 01:04:26;;;;;;;;;;;10.90;99.90;;;;;;5044631;28;19917;-61
2022/08/02 01:06:52;;;;;;;;;;;10.90;99.90;;;;;;5047747;28;19924;-61
2022/08/02 01:09:17;;;;;;;;;;;10.80;99.90;;;;;;5039115;28;19921;-59
2022/08/02 01:11:43;;;;;;;;;;;10.90;99.90;;;;;;5051485;28;19917;-60
2022/08/02 01:14:10;;;;;;;;;;;10.90;99.90;;;;;;5047866;28;19916;-61
2022/08/02 01:16:38;;;;;;;;;;;10.90;99.90;;;;;;5035373;28;19928;-61
2022/08/02 01:19:09;;;;;;;;;;;10.90;99.90;;;;;;5044966;28;19928;-60
2022/08/02 01:21:39;;;;;;;;;;;10.90;99.90;;;;;;5049621;28;20086;-61
2022/08/02 01:24:15;;;;;;;;;;;10.80;99.90;;;;;;5052021;28;20263;-60
2022/08/02 01:26:44;;;;;;;;;;;10.80;99.90;;;;;;5051774;28;19916;-60
2022/08/02 01:29:17;;;;;;;;;;;10.80;99.90;;;;;;5053603;28;19925;-60
2022/08/02 01:31:49;;;;;;;;;;;10.80;99.90;;;;;;5052754;28;19920;-60
2022/08/02 01:34:14;;;;;;;;;;;10.80;99.90;;;;;;5049201;28;20000;-62
2022/08/02 01:36:41;;;;;;;;;;;10.90;99.90;;;;;;5048109;28;19917;-60
2022/08/02 01:39:10;;;;;;;;;;;10.80;99.90;;;;;;5050352;28;20379;-60
2022/08/02 01:41:36;;;;;;;;;;;10.80;99.90;;;;;;5052875;28;19924;-60
2022/08/02 01:44:02;;;;;;;;;;;10.70;99.90;;;;;;5050004;28;19921;-61
2022/08/02 01:46:29;;;;;;;;;;;10.70;99.90;;;;;;5051709;28;19920;-61
2022/08/02 01:48:55;;;;;;;;;;;10.70;99.90;;;;;;5047413;28;19999;-61
2022/08/02 01:52:20;;;;;;;;;;;10.60;99.90;;;;;;5048037;28;19917;-61
2022/08/02 01:54:12;;;;;;;;;;;10.60;99.90;;;;;;5048657;28;19917;-61
2022/08/02 01:56:37;;;;;;;;;;;10.50;99.90;;;;;;5052495;28;19923;-60
2022/08/02 01:59:04;;;;;;;;;;;10.50;99.90;;;;;;5049785;28;19921;-60
2022/08/02 02:01:31;;;;;;;;;;;10.50;99.90;;;;;;5052405;28;19924;-60
2022/08/02 02:03:58;;;;;;;;;;;10.40;99.90;;;;;;5046516;28;20392;-60
2022/08/02 02:06:24;;;;;;;;;;;10.50;99.90;;;;;;5049700;28;19917;-60
2022/08/02 02:08:50;;;;;;;;;;;10.50;99.90;;;;;;5049580;28;19927;-59
2022/08/02 02:11:15;;;;;;;;;;;10.50;99.90;;;;;;5034358;28;20338;-62
2022/08/02 02:13:41;;;;;;;;;;;10.60;99.90;;;;;;5050020;28;19921;-61
2022/08/02 02:16:06;;;;;;;;;;;10.60;99.90;;;;;;5049996;28;19917;-61
2022/08/02 02:18:33;;;;;;;;;;;10.60;99.90;;;;;;5050045;28;20044;-61
2022/08/02 02:20:58;;;;;;;;;;;10.60;99.90;;;;;;5048221;28;19916;-60
2022/08/02 02:23:24;;;;;;;;;;;10.50;99.90;;;;;;5047742;28;19920;-60
2022/08/02 02:25:50;;;;;;;;;;;10.50;99.90;;;;;;5050792;28;19921;-61
2022/08/02 02:28:21;;;;;;;;;;;10.50;99.90;;;;;;5049942;28;19921;-60
2022/08/02 02:30:48;;;;;;;;;;;10.50;99.90;;;;;;5045487;28;19947;-62
2022/08/02 02:33:17;;;;;;;;;;;10.40;99.90;;;;;;5048551;28;19970;-61
2022/08/02 02:35:43;;;;;;;;;;;10.60;99.90;;;;;;5046110;28;19967;-61
2022/08/02 02:38:11;;;;;;;;;;;10.50;99.90;;;;;;5053028;28;20311;-60
2022/08/02 02:40:36;;;;;;;;;;;10.50;99.90;;;;;;5047571;28;20435;-60
2022/08/02 02:43:03;;;;;;;;;;;10.60;99.90;;;;;;5052437;28;19928;-60
2022/08/02 02:45:29;;;;;;;;;;;10.60;99.90;;;;;;5048376;28;19917;-60
2022/08/02 02:47:55;;;;;;;;;;;10.50;99.90;;;;;;5047165;28;20066;-60
2022/08/02 02:50:21;;;;;;;;;;;10.50;99.90;;;;;;5047745;28;19920;-61
2022/08/02 02:52:47;;;;;;;;;;;10.50;99.90;;;;;;5050231;28;19921;-60
2022/08/02 02:55:13;;;;;;;;;;;10.50;99.90;;;;;;5030049;28;20291;-60
2022/08/02 02:57:39;;;;;;;;;;;10.60;99.90;;;;;;5049952;28;19962;-62
2022/08/02 03:00:06;;;;;;;;;;;10.60;99.90;;;;;;5048822;28;19921;-61
2022/08/02 03:02:32;;;;;;;;;;;10.60;99.90;;;;;;5049543;28;19967;-62
2022/08/02 03:05:01;;;;;;;;;;;10.60;99.90;;;;;;5042799;28;20349;-61
2022/08/02 03:07:27;;;;;;;;;;;10.60;99.90;;;;;;5049487;28;19952;-61
2022/08/02 03:09:52;;;;;;;;;;;10.70;99.90;;;;;;5036866;28;20405;-60
2022/08/02 03:12:18;;;;;;;;;;;10.70;99.90;;;;;;5050003;28;19924;-61
2022/08/02 03:14:43;;;;;;;;;;;10.60;99.90;;;;;;5047706;28;19924;-61
2022/08/02 03:17:09;;;;;;;;;;;10.60;99.90;;;;;;5049387;28;20303;-61
2022/08/02 03:19:35;;;;;;;;;;;10.60;99.90;;;;;;5048429;28;19921;-61
2022/08/02 03:22:00;;;;;;;;;;;10.60;99.90;;;;;;5049895;28;19917;-61
2022/08/02 03:24:26;;;;;;;;;;;10.60;99.90;;;;;;5048907;28;19991;-61
2022/08/02 03:26:51;;;;;;;;;;;10.60;99.90;;;;;;5046997;28;19958;-61
2022/08/02 03:29:17;;;;;;;;;;;10.70;99.90;;;;;;5049228;28;19930;-61
2022/08/02 03:31:44;;;;;;;;;;;10.70;99.90;;;;;;5047964;28;19967;-61
2022/08/02 03:34:09;;;;;;;;;;;10.70;99.90;;;;;;5035685;28;19924;-61
2022/08/02 03:36:36;;;;;;;;;;;10.70;99.90;;;;;;5030897;28;19935;-61
2022/08/02 03:39:02;;;;;;;;;;;10.70;99.90;;;;;;5048159;28;19932;-61
2022/08/02 03:41:28;;;;;;;;;;;10.70;99.90;;;;;;5051497;28;20241;-61
2022/08/02 03:43:54;;;;;;;;;;;10.70;99.90;;;;;;5046816;28;19962;-61
2022/08/02 03:46:21;;;;;;;;;;;10.60;99.90;;;;;;5046227;28;19924;-62
2022/08/02 03:48:47;;;;;;;;;;;10.70;99.90;;;;;;5045464;28;20368;-61
2022/08/02 03:51:13;;;;;;;;;;;10.70;99.90;;;;;;5048582;28;19967;-61
2022/08/02 03:53:39;;;;;;;;;;;10.70;99.90;;;;;;5049819;28;20295;-62
2022/08/02 03:56:05;;;;;;;;;;;10.70;99.90;;;;;;5028533;28;19924;-61
2022/08/02 03:58:31;;;;;;;;;;;10.70;99.90;;;;;;5048436;28;20015;-62
2022/08/02 04:00:57;;;;;;;;;;;10.70;99.90;;;;;;5031232;28;20003;-62
2022/08/02 04:03:23;;;;;;;;;;;10.60;99.90;;;;;;5045174;28;19971;-62
2022/08/02 04:05:48;;;;;;;;;;;10.60;99.90;;;;;;5048111;28;19956;-61
2022/08/02 04:08:14;;;;;;;;;;;10.60;99.90;;;;;;5047913;28;19939;-61
2022/08/02 04:13:26;;;;;;;;;;;10.70;99.90;;;;;;5048652;28;20011;-62
2022/08/02 04:15:54;;;;;;;;;;;10.70;99.90;;;;;;5046366;28;19921;-62
2022/08/02 04:18:24;;;;;;;;;;;10.70;99.90;;;;;;5047261;28;19999;-61
2022/08/02 04:20:50;;;;;;;;;;;10.80;99.90;;;;;;5049416;28;19978;-61
2022/08/02 04:23:16;;;;;;;;;;;10.80;99.90;;;;;;5049273;28;19917;-61
2022/08/02 04:25:43;;;;;;;;;;;10.80;99.90;;;;;;5050800;28;19925;-62
2022/08/02 04:28:09;;;;;;;;;;;10.80;99.90;;;;;;5042853;28;20261;-61
2022/08/02 04:30:36;;;;;;;;;;;10.90;99.90;;;;;;5046717;28;20016;-61
2022/08/02 04:33:01;;;;;;;;;;;10.90;99.90;;;;;;5046057;28;19924;-61
2022/08/02 04:35:27;;;;;;;;;;;11.00;99.90;;;;;;5044992;28;20414;-61
2022/08/02 04:37:53;;;;;;;;;;;11.00;99.90;;;;;;5046745;28;19916;-62
2022/08/02 04:40:18;;;;;;;;;;;11.10;99.90;;;;;;5051278;28;19921;-61
2022/08/02 04:42:44;;;;;;;;;;;11.20;99.90;;;;;;5050778;28;19921;-62
2022/08/02 04:45:09;;;;;;;;;;;11.30;99.90;;;;;;5048831;28;19952;-61
2022/08/02 04:47:35;;;;;;;;;;;11.30;99.90;;;;;;5045078;28;21691;-61
2022/08/02 04:50:00;;;;;;;;;;;11.40;99.90;;;;;;5047186;28;20394;-62
2022/08/02 04:52:26;;;;;;;;;;;11.40;99.90;;;;;;5033941;28;19917;-61
2022/08/02 04:54:52;;;;;;;;;;;11.40;99.90;;;;;;5049575;28;19925;-61
2022/08/02 05:00:03;;;;;;;;;;;11.50;99.90;;;;;;5049871;28;20015;-61
2022/08/02 05:02:28;;;;;;;;;;;11.50;99.90;;;;;;5054555;28;19932;-62
2022/08/02 05:04:54;;;;;;;;;;;11.50;99.90;;;;;;5048896;28;19917;-61
2022/08/02 05:07:19;;;;;;;;;;;11.60;99.90;;;;;;5053139;28;19947;-61
2022/08/02 05:09:45;;;;;;;;;;;11.60;99.90;;;;;;5049702;28;19917;-61
2022/08/02 05:12:10;;;;;;;;;;;11.70;99.90;;;;;;5051337;28;19924;-61
2022/08/02 05:14:36;;;;;;;;;;;11.80;99.90;;;;;;5034321;28;19996;-60
2022/08/02 05:17:01;;;;;;;;;;;11.90;99.90;;;;;;5052733;28;20012;-61
2022/08/02 05:19:27;;;;;;;;;;;12.00;99.90;;;;;;5045514;28;19931;-61
2022/08/02 05:21:52;;;;;;;;;;;12.10;99.90;;;;;;5038961;28;19917;-60
2022/08/02 05:24:18;;;;;;;;;;;12.20;99.90;;;;;;5049351;28;20336;-61
2022/08/02 05:26:43;;;;;;;;;;;12.30;99.90;;;;;;5042800;28;19950;-61
2022/08/02 05:29:09;;;;;;;;;;;12.50;99.90;;;;;;5044474;28;19916;-60
2022/08/02 05:31:34;;;;;;;;;;;12.60;99.90;;;;;;5034926;28;19921;-61
2022/08/02 05:34:00;;;;;;;;;;;12.70;99.90;;;;;;5044252;28;20007;-61
2022/08/02 05:36:25;;;;;;;;;;;12.90;99.90;;;;;;5048047;28;19962;-61
2022/08/02 05:38:51;;;;;;;;;;;13.00;99.90;;;;;;5043401;28;19924;-61
2022/08/02 05:41:18;;;;;;;;;;;13.00;99.90;;;;;;5048194;28;19959;-62
2022/08/02 05:43:44;;;;;;;;;;;13.10;99.90;;;;;;5048197;28;19923;-62
2022/08/02 05:46:09;;;;;;;;;;;13.30;99.90;;;;;;5051851;28;19917;-61
2022/08/02 05:48:35;;;;;;;;;;;13.40;99.90;;;;;;5045579;28;19979;-62
2022/08/02 05:51:04;;;;;;;;;;;13.60;99.90;;;;;;5049175;28;20003;-61
2022/08/02 05:53:39;;;;;;;;;;;13.70;99.90;;;;;;5027548;28;19924;-61
2022/08/02 05:56:15;;;;;;;;;;;13.90;99.90;;;;;;5048387;28;20598;-61
2022/08/02 05:58:49;;;;;;;;;;;14.10;99.90;;;;;;5051799;28;19974;-61
2022/08/02 06:01:20;;;;;;;;;;;14.30;99.90;;;;;;5049456;28;19920;-61
2022/08/02 06:03:50;;;;;;;;;;;14.50;99.90;;;;;;5047086;28;19928;-62
2022/08/02 06:06:22;;;;;;;;;;;14.70;99.90;;;;;;5045713;28;20497;-61
2022/08/02 06:08:49;;;;;;;;;;;14.90;99.90;;;;;;5045981;28;19928;-61
2022/08/02 06:11:21;;;;;;;;;;;15.10;99.90;;;;;;5051122;28;19923;-60
2022/08/02 06:13:47;;;;;;;;;;;15.40;99.90;;;;;;5051211;28;19928;-61
2022/08/02 06:16:12;;;;;;;;;;;15.70;99.90;;;;;;5047598;28;19916;-62
2022/08/02 06:18:42;;;;;;;;;;;15.90;99.90;;;;;;5030103;28;19963;-61
2022/08/02 06:21:09;;;;;;;;;;;16.10;99.90;;;;;;5046973;28;19928;-62
2022/08/02 06:23:39;;;;;;;;;;;16.40;99.90;;;;;;5050603;28;20398;-61
2022/08/02 06:26:05;;;;;;;;;;;16.60;99.90;;;;;;5036461;28;19916;-62
2022/08/02 06:28:31;;;;;;;;;;;16.70;99.90;;;;;;5039596;28;19920;-61
2022/08/02 06:30:57;;;;;;;;;;;16.90;99.90;;;;;;5024843;28;19971;-61
2022/08/02 06:33:23;;;;;;;;;;;17.10;99.70;;;;;;5040781;28;19920;-63
2022/08/02 06:36:08;;;;;;;;;;;17.30;99.90;;;;;;5041069;28;19917;-62
2022/08/02 06:38:39;;;;;;;;;;;17.40;97.40;;;;;;5049287;28;20506;-62
2022/08/02 06:41:06;;;;;;;;;;;17.70;99.90;;;;;;5031251;28;19921;-62
2022/08/02 06:43:50;;;;;;;;;;;17.80;98.40;;;;;;5035848;28;19920;-62
2022/08/02 06:46:16;;;;;;;;;;;17.90;98.20;;;;;;5043089;28;19924;-61
2022/08/02 06:48:41;;;;;;;;;;;18.20;97.10;;;;;;5044263;28;19924;-62
2022/08/02 06:51:07;;;;;;;;;;;18.00;95.20;;;;;;5045396;28;20370;-62
2022/08/02 06:53:32;;;;;;;;;;;18.20;94.50;;;;;;5050116;28;19917;-62
2022/08/02 06:55:58;;;;;;;;;;;18.60;96.20;;;;;;5047567;28;19920;-62
2022/08/02 06:58:23;;;;;;;;;;;18.60;94.20;;;;;;5044221;28;20291;-61
2022/08/02 07:00:49;;;;;;;;;;;18.70;93.70;;;;;;5036264;28;20426;-61
2022/08/02 07:03:14;;;;;;;;;;;18.70;93.50;;;;;;5021373;28;19963;-62
2022/08/02 07:05:40;;;;;;;;;;;18.60;92.20;;;;;;5033640;28;20338;-61
2022/08/02 07:08:06;;;;;;;;;;;18.70;92.70;;;;;;5048216;28;19921;-61
2022/08/02 07:10:32;;;;;;;;;;;18.90;92.10;;;;;;5044586;28;19921;-61
2022/08/02 07:12:57;;;;;;;;;;;19.20;91.80;;;;;;5047047;28;19920;-61
2022/08/02 07:15:22;;;;;;;;;;;18.90;90.90;;;;;;5029764;28;19940;-62
2022/08/02 07:17:48;;;;;;;;;;;18.80;90.70;;;;;;5049871;28;19921;-62
2022/08/02 07:20:13;;;;;;;;;;;19.00;91.10;;;;;;5049658;28;19988;-62
2022/08/02 07:22:39;;;;;;;;;;;19.20;91.10;;;;;;5050356;28;19920;-62
2022/08/02 07:25:06;;;;;;;;;;;19.60;90.90;;;;;;5052812;28;19995;-62
2022/08/02 07:27:32;;;;;;;;;;;19.80;88.30;;;;;;5048901;28;20273;-63
2022/08/02 07:29:57;;;;;;;;;;;19.80;88.00;;;;;;5048552;28;19924;-61
2022/08/02 07:32:24;;;;;;;;;;;19.80;85.80;;;;;;5050278;28;19916;-61
2022/08/02 07:34:49;;;;;;;;;;;20.10;84.40;;;;;;5046784;28;19960;-62
2022/08/02 07:37:15;;;;;;;;;;;20.30;85.10;;;;;;5052803;28;19951;-62
2022/08/02 07:39:40;;;;;;;;;;;20.20;85.80;;;;;;5033365;28;19998;-62
2022/08/02 07:42:06;;;;;;;;;;;20.30;85.90;;;;;;5029230;28;20384;-62
2022/08/02 07:44:33;;;;;;;;;;;20.10;81.20;;;;;;5048495;28;20003;-62
2022/08/02 07:47:03;;;;;;;;;;;20.30;81.80;;;;;;5051510;28;19924;-61
2022/08/02 07:49:28;;;;;;;;;;;20.40;78.90;;;;;;5046625;28;20011;-63
2022/08/02 07:51:54;;;;;;;;;;;20.50;79.60;;;;;;5045676;28;20020;-63
2022/08/02 07:54:20;;;;;;;;;;;20.60;80.10;;;;;;5048898;28;19920;-63
2022/08/02 07:56:45;;;;;;;;;;;21.00;77.60;;;;;;5022940;28;19924;-61
2022/08/02 07:59:11;;;;;;;;;;;20.90;74.90;;;;;;5031128;28;19952;-64
2022/08/02 08:01:36;;;;;;;;;;;21.20;70.90;;;;;;5047745;28;19917;-62
2022/08/02 08:04:03;;;;;;;;;;;21.20;72.50;;;;;;5045469;28;19920;-62
2022/08/02 08:06:29;;;;;;;;;;;21.10;69.80;;;;;;5040376;28;20070;-62
2022/08/02 08:08:55;;;;;;;;;;;21.50;68.50;;;;;;5035595;28;19916;-62
2022/08/02 08:11:20;;;;;;;;;;;21.90;65.10;;;;;;5039532;28;20584;-63
2022/08/02 08:13:46;;;;;;;;;;;22.00;67.40;;;;;;5027670;28;20364;-64
2022/08/02 08:16:11;;;;;;;;;;;22.30;69.30;;;;;;5046340;28;19928;-63
2022/08/02 08:18:37;;;;;;;;;;;22.70;65.40;;;;;;5029044;28;19933;-63
2022/08/02 08:21:02;;;;;;;;;;;23.00;58.80;;;;;;5043887;28;19917;-62
2022/08/02 08:23:28;;;;;;;;;;;23.00;60.60;;;;;;5045147;28;19924;-63
2022/08/02 08:25:53;;;;;;;;;;;23.40;60.50;;;;;;5051842;28;19928;-62
2022/08/02 08:28:19;;;;;;;;;;;23.00;53.80;;;;;;5030158;28;19924;-62
2022/08/02 08:30:46;;;;;;;;;;;22.90;54.00;;;;;;5041911;28;20497;-62
2022/08/02 08:33:12;;;;;;;;;;;23.20;57.00;;;;;;5048563;28;19962;-64
2022/08/02 08:35:37;;;;;;;;;;;23.30;52.00;;;;;;5049991;28;20354;-63
2022/08/02 08:38:03;;;;;;;;;;;23.30;53.70;;;;;;5056159;28;19917;-63
2022/08/02 08:40:28;;;;;;;;;;;23.50;52.30;;;;;;5054833;28;19942;-62
2022/08/02 08:42:54;;;;;;;;;;;23.70;52.00;;;;;;5052780;28;20245;-63
2022/08/02 08:45:19;;;;;;;;;;;23.90;55.80;;;;;;5052482;28;19922;-62
2022/08/02 08:47:50;;;;;;;;;;;23.90;55.00;;;;;;5053062;28;19932;-63
2022/08/02 08:50:17;;;;;;;;;;;23.50;52.20;;;;;;5049709;28;19924;-63
2022/08/02 08:53:02;;;;;;;;;;;24.00;54.80;;;;;;5052545;28;19921;-63
2022/08/02 08:55:29;;;;;;;;;;;24.10;53.50;;;;;;5052546;28;19974;-62
2022/08/02 08:57:56;;;;;;;;;;;24.20;52.10;;;;;;5035274;28;20352;-63
2022/08/02 09:00:22;;;;;;;;;;;24.40;55.20;;;;;;5052265;28;20502;-63
2022/08/02 09:02:48;;;;;;;;;;;24.80;53.40;;;;;;5054394;28;19971;-63
2022/08/02 09:05:14;;;;;;;;;;;24.90;51.10;;;;;;5049889;28;20620;-63
2022/08/02 09:07:41;;;;;;;;;;;24.60;53.10;;;;;;5046260;28;20351;-62
2022/08/02 09:10:25;;;;;;;;;;;25.40;51.20;;;;;;5053484;28;19923;-64
2022/08/02 09:13:09;;;;;;;;;;;25.40;50.90;;;;;;5036492;28;20575;-63
2022/08/02 09:15:36;;;;;;;;;;;26.00;51.00;;;;;;5034752;28;19921;-63
2022/08/02 09:18:03;;;;;;;;;;;26.40;50.90;;;;;;5052311;28;20386;-64
2022/08/02 09:20:28;;;;;;;;;;;27.10;48.90;;;;;;5045070;28;20395;-63
2022/08/02 09:23:07;;;;;;;;;;;27.40;46.50;;;;;;5053313;28;19916;-63
2022/08/02 09:25:33;;;;;;;;;;;27.60;46.70;;;;;;5055624;28;19917;-63
2022/08/02 09:27:59;;;;;;;;;;;27.10;46.50;;;;;;5052045;28;19970;-64
2022/08/02 09:30:27;;;;;;;;;;;27.60;46.40;;;;;;5053101;28;20003;-64
2022/08/02 09:32:53;;;;;;;;;;;27.20;46.80;;;;;;5053524;28;19927;-65
2022/08/02 09:35:35;;;;;;;;;;;26.90;46.80;;;;;;5053758;28;19920;-63
2022/08/02 09:38:13;;;;;;;;;;;27.50;46.70;;;;;;5054621;28;20333;-65
2022/08/02 09:40:39;;;;;;;;;;;28.20;44.90;;;;;;5048826;28;20568;-65
2022/08/02 09:43:05;;;;;;;;;;;27.90;44.70;;;;;;5030564;28;19924;-63
2022/08/02 09:45:33;;;;;;;;;;;27.10;44.20;;;;;;5045241;28;19917;-63
2022/08/02 09:48:00;;;;;;;;;;;27.30;44.90;;;;;;5049962;28;19920;-64
2022/08/02 09:50:25;;;;;;;;;;;27.30;47.40;;;;;;5020821;28;20319;-63
2022/08/02 09:52:53;;;;;;;;;;;27.60;47.70;;;;;;5047253;28;19921;-63
2022/08/02 09:55:19;;;;;;;;;;;27.20;46.00;;;;;;5052189;28;19923;-62
2022/08/02 09:57:44;;;;;;;;;;;27.00;48.10;;;;;;5038679;28;20019;-63
2022/08/02 10:00:10;;;;;;;;;;;26.10;46.20;;;;;;5042719;28;20707;-64
2022/08/02 10:02:36;;;;;;;;;;;26.30;47.80;;;;;;5045484;28;19940;-64
2022/08/02 10:05:01;;;;;;;;;;;26.20;49.00;;;;;;5044330;28;19916;-64
2022/08/02 10:07:27;;;;;;;;;;;26.30;48.30;;;;;;5040664;28;19924;-63
2022/08/02 10:09:53;;;;;;;;;;;26.50;47.60;;;;;;5048624;28;19920;-63
2022/08/02 10:12:21;;;;;;;;;;;26.60;48.80;;;;;;5044062;28;19916;-62
2022/08/02 10:14:48;;;;;;;;;;;26.90;47.70;;;;;;5032042;28;20668;-63
2022/08/02 10:17:14;;;;;;;;;;;27.60;49.30;;;;;;5051336;28;19917;-63
2022/08/02 10:19:39;;;;;;;;;;;27.70;45.80;;;;;;5044439;28;19931;-62
2022/08/02 10:22:08;;;;;;;;;;;28.90;47.50;;;;;;5048215;28;19931;-63
2022/08/02 10:24:35;;;;;;;;;;;28.90;45.30;;;;;;5045286;28;20012;-62
2022/08/02 10:27:02;;;;;;;;;;;28.50;45.90;;;;;;5048255;28;19916;-63
2022/08/02 10:29:35;;;;;;;;;;;28.70;48.20;;;;;;5030164;28;20471;-64
2022/08/02 10:32:03;;;;;;;;;;;28.90;48.10;;;;;;5047534;28;19920;-62
2022/08/02 10:34:34;;;;;;;;;;;29.50;47.20;;;;;;5044230;28;19927;-63
2022/08/02 10:37:00;;;;;;;;;;;28.60;47.00;;;;;;5047246;28;19971;-63
2022/08/02 10:39:26;;;;;;;;;;;29.00;48.20;;;;;;5051008;28;19928;-63
2022/08/02 10:41:51;;;;;;;;;;;29.00;47.90;;;;;;5052061;28;19931;-63
2022/08/02 10:44:24;;;;;;;;;;;28.70;47.90;;;;;;5051074;28;20362;-64
2022/08/02 10:46:50;;;;;;;;;;;28.70;49.30;;;;;;5051231;28;20360;-63
2022/08/02 10:49:19;;;;;;;;;;;28.10;49.70;;;;;;5048847;28;19975;-62
2022/08/02 10:51:55;;;;;;;;;;;27.60;51.40;;;;;;5031601;28;19923;-63
2022/08/02 10:54:22;;;;;;;;;;;27.50;52.00;;;;;;5051785;28;19931;-63
2022/08/02 10:56:48;;;;;;;;;;;27.30;52.70;;;;;;5047457;28;19927;-62
2022/08/02 10:59:29;;;;;;;;;;;27.20;52.50;;;;;;5052008;28;19932;-62
2022/08/02 11:02:00;;;;;;;;;;;27.10;53.70;;;;;;5051474;28;19921;-62
2022/08/02 11:04:46;;;;;;;;;;;26.70;54.10;;;;;;5049116;28;20383;-62
2022/08/02 11:07:13;;;;;;;;;;;26.70;55.60;;;;;;5006981;28;20049;-63
2022/08/02 11:09:39;;;;;;;;;;;26.60;56.00;;;;;;5048394;28;19917;-63
2022/08/02 11:12:06;;;;;;;;;;;26.50;55.60;;;;;;5051542;28;19923;-62
2022/08/02 11:14:32;;;;;;;;;;;26.60;56.10;;;;;;5031614;28;19916;-62
2022/08/02 11:17:00;;;;;;;;;;;26.90;56.70;;;;;;5051230;28;19923;-63
2022/08/02 11:19:26;;;;;;;;;;;27.10;55.40;;;;;;5048895;28;19928;-63
2022/08/02 11:22:09;;;;;;;;;;;27.20;56.00;;;;;;5049009;28;19917;-62
2022/08/02 11:24:35;;;;;;;;;;;27.00;55.50;;;;;;5052098;28;19917;-63
2022/08/02 11:27:02;;;;;;;;;;;27.20;54.60;;;;;;5050372;28;19917;-63
2022/08/02 11:29:48;;;;;;;;;;;26.80;54.40;;;;;;5051039;28;19920;-63
2022/08/02 11:32:17;;;;;;;;;;;26.80;52.90;;;;;;5053266;28;19917;-62
2022/08/02 11:34:45;;;;;;;;;;;26.90;54.70;;;;;;5047961;28;19931;-62
2022/08/02 11:37:11;;;;;;;;;;;27.00;53.80;;;;;;5049950;28;19921;-63
2022/08/02 11:39:37;;;;;;;;;;;27.20;53.00;;;;;;5051932;28;19921;-63
2022/08/02 11:42:02;;;;;;;;;;;27.30;52.70;;;;;;5051693;28;19920;-63
2022/08/02 11:44:29;;;;;;;;;;;27.50;52.70;;;;;;5051040;28;19975;-64
2022/08/02 11:46:59;;;;;;;;;;;27.40;51.90;;;;;;5051581;28;19928;-62
2022/08/02 11:49:24;;;;;;;;;;;27.50;52.90;;;;;;5049782;28;20380;-64
2022/08/02 11:51:51;;;;;;;;;;;27.70;53.50;;;;;;5049878;28;19917;-61
2022/08/02 11:54:26;;;;;;;;;;;27.70;52.90;;;;;;5051005;28;20303;-63
2022/08/02 11:56:52;;;;;;;;;;;27.70;53.80;;;;;;5051294;28;19925;-63
2022/08/02 11:59:18;;;;;;;;;;;27.70;52.10;;;;;;5050836;28;19975;-63
2022/08/02 12:01:43;;;;;;;;;;;27.50;53.30;;;;;;5049577;28;19927;-64
2022/08/02 12:04:09;;;;;;;;;;;27.70;53.70;;;;;;5047702;28;19967;-63
2022/08/02 12:06:34;;;;;;;;;;;28.00;53.50;;;;;;5049186;28;19921;-63
2022/08/02 12:09:03;;;;;;;;;;;28.20;53.00;;;;;;5052281;28;19916;-63
2022/08/02 12:11:28;;;;;;;;;;;28.30;53.50;;;;;;5050054;28;19956;-63
2022/08/02 12:13:56;;;;;;;;;;;28.20;52.30;;;;;;5050900;28;19963;-62
2022/08/02 12:19:18;;;;;;;;;;;27.70;52.80;;;;;;5048984;28;19921;-63
2022/08/02 12:21:43;;;;;;;;;;;27.70;53.10;;;;;;5049963;28;19925;-63
2022/08/02 12:24:10;;;;;;;;;;;27.90;52.00;;;;;;5049978;28;20314;-63
2022/08/02 12:26:45;;;;;;;;;;;28.10;51.90;;;;;;5050150;28;19970;-63
2022/08/02 12:29:11;;;;;;;;;;;28.20;50.80;;;;;;5050747;28;19924;-62
2022/08/02 12:31:47;;;;;;;;;;;28.30;50.40;;;;;;5049586;28;19917;-63
2022/08/02 12:34:15;;;;;;;;;;;28.50;49.30;;;;;;5028683;28;19921;-63
2022/08/02 12:36:41;;;;;;;;;;;28.50;51.40;;;;;;5049358;28;19960;-60
2022/08/02 12:39:10;;;;;;;;;;;28.30;51.20;;;;;;5050706;28;19979;-60
2022/08/02 12:41:36;;;;;;;;;;;28.40;50.50;;;;;;5050161;28;19917;-59
2022/08/02 12:44:01;;;;;;;;;;;28.40;50.80;;;;;;5050261;28;20291;-61
2022/08/02 12:46:27;;;;;;;;;;;28.70;51.90;;;;;;5051259;28;19963;-60
2022/08/02 12:48:53;;;;;;;;;;;28.70;51.70;;;;;;5048221;28;20031;-63
2022/08/02 12:51:24;;;;;;;;;;;28.70;50.60;;;;;;5050065;28;20072;-63
2022/08/02 12:53:50;;;;;;;;;;;28.30;50.90;;;;;;5015425;28;20353;-63
2022/08/02 12:56:26;;;;;;;;;;;28.00;50.30;;;;;;5050568;28;19917;-63
2022/08/02 12:58:51;;;;;;;;;;;27.80;51.60;;;;;;5050916;28;19955;-63
2022/08/02 13:01:23;;;;;;;;;;;28.00;51.90;;;;;;5050864;28;19916;-63
2022/08/02 13:03:49;;;;;;;;;;;28.30;52.10;;;;;;5047236;28;19963;-64
2022/08/02 13:06:16;;;;;;;;;;;28.40;50.90;;;;;;5050101;28;19963;-63
2022/08/02 13:08:41;;;;;;;;;;;28.40;50.60;;;;;;5047137;28;20423;-64
2022/08/02 13:11:07;;;;;;;;;;;28.20;50.40;;;;;;5051931;28;19999;-64
2022/08/02 13:13:33;;;;;;;;;;;28.00;50.70;;;;;;5051609;28;20409;-63
2022/08/02 13:15:58;;;;;;;;;;;27.60;52.30;;;;;;5036870;28;19962;-63
2022/08/02 13:18:24;;;;;;;;;;;27.60;52.60;;;;;;5052694;28;19916;-64
2022/08/02 13:20:49;;;;;;;;;;;27.40;52.90;;;;;;5052247;28;19928;-63
2022/08/02 13:23:15;;;;;;;;;;;27.40;53.80;;;;;;5054037;28;19917;-63
2022/08/02 13:25:41;;;;;;;;;;;27.20;54.50;;;;;;5053929;28;19939;-63
2022/08/02 13:28:07;;;;;;;;;;;27.00;54.50;;;;;;5054975;28;20311;-63
2022/08/02 13:30:32;;;;;;;;;;;27.00;55.50;;;;;;5051898;28;20024;-64
2022/08/02 13:32:58;;;;;;;;;;;27.10;55.80;;;;;;5052880;28;19920;-63
2022/08/02 13:35:23;;;;;;;;;;;27.00;56.20;;;;;;5052094;28;19928;-62
2022/08/02 13:37:49;;;;;;;;;;;27.30;55.00;;;;;;5034932;28;19916;-63
2022/08/02 13:40:15;;;;;;;;;;;27.50;55.60;;;;;;5053484;28;19920;-64
2022/08/02 13:42:40;;;;;;;;;;;27.50;55.50;;;;;;5054347;28;19920;-63
2022/08/02 13:45:06;;;;;;;;;;;27.40;55.70;;;;;;5052955;28;19923;-63
2022/08/02 13:47:32;;;;;;;;;;;27.50;55.90;;;;;;5054591;28;19921;-63
2022/08/02 13:49:57;;;;;;;;;;;28.00;56.20;;;;;;5050725;28;19917;-63
2022/08/02 13:52:23;;;;;;;;;;;28.50;55.10;;;;;;5054343;28;20372;-63
2022/08/02 13:54:48;;;;;;;;;;;28.40;53.50;;;;;;5052276;28;19920;-63
2022/08/02 13:57:14;;;;;;;;;;;28.40;53.20;;;;;;5052741;28;19916;-63
2022/08/02 13:59:39;;;;;;;;;;;28.20;54.40;;;;;;5054298;28;19921;-63
2022/08/02 14:02:05;;;;;;;;;;;28.20;54.70;;;;;;5035948;28;19963;-62
2022/08/02 14:04:31;;;;;;;;;;;27.90;53.90;;;;;;5031356;28;19921;-63
2022/08/02 14:06:57;;;;;;;;;;;27.70;54.20;;;;;;5035863;28;19924;-63
2022/08/02 14:09:23;;;;;;;;;;;27.50;55.00;;;;;;5050650;28;20011;-64
2022/08/02 14:11:48;;;;;;;;;;;27.20;56.10;;;;;;5054966;28;19963;-63
2022/08/02 14:14:14;;;;;;;;;;;27.20;56.90;;;;;;5051164;28;19917;-62
2022/08/02 14:16:40;;;;;;;;;;;27.00;58.00;;;;;;5019081;28;20329;-63
2022/08/02 14:19:05;;;;;;;;;;;26.90;58.40;;;;;;5051296;28;19920;-62
2022/08/02 14:21:31;;;;;;;;;;;27.00;58.60;;;;;;5052193;28;19939;-63
2022/08/02 14:23:56;;;;;;;;;;;27.10;58.00;;;;;;5051575;28;20015;-63